KDEC/DEC METAR and TAF weather

Enter ICAO airport designator
Station Type Date Time Source
KDEC METAR 2020/01/23 18:20 UTC NOAA

KDEC 231820Z 17009KT 5SM -SN BR SCT007 OVC013 01/M01 A3003 RMK AO2 UPE02SNB02 P0001 T00061011


Station Type Date Time Source
KDEC Decoded METAR 2020/01/23 18:20 UTC NOAA

DECATUR AIRPORT, IL, United States (KDEC) 39-50N 88-52W 207M
Jan 23, 2020 - 01:20 PM EST / 2020.01.23 1820 UTC
Wind: from the S (170 degrees) at 10 MPH (9 KT):0
Visibility: 5 mile(s):0
Sky conditions: overcast
Weather: light snow; mist
Precipitation last hour: 0.01 inches
Temperature: 33.1 F (0.6 C)
Windchill: 24 F (-4 C):1
Dew Point: 30.0 F (-1.1 C)
Relative Humidity: 88%
Pressure (altimeter): 30.03 in. Hg (1016 hPa)
ob: KDEC 231820Z 17009KT 5SM -SN BR SCT007 OVC013 01/M01 A3003 RMK AO2 UPE02SNB02 P0001 T00061011
cycle: 18

Station Type Date Time Source
KDEC TAF 2020/01/23 18:45 UTC NOAA

TAF KDEC 231742Z 2318/2418 17009KT 2SM -SNRA BR BKN007
FM240000 11007KT 1SM -SNRA BR OVC006
FM241000 08006KT 3/4SM -SNRA BR OVC002

Example: see airport list